Pagrindinis puslapis
METAR-TAF:

METAR-TAF

Oro uostai :

Kramfors, Švedija

platuma: 63-03N, ilguma: 017-46E, Aukštis: 10 m

Dabartinis oras

Ataskaita buvo paskelbta 12 minutes, ne 19:20 UTC
Vėjas 10 kt iš Pietų
Temperatūra 18°C
Drėgmė 56%
Slėgis 1012 hPa
Matomumas 10 km arba daugiau

METAR: ESNK 171920Z AUTO 18010KT 9999 SCT170/// 18/09 Q1012

Laikas: 21:32 (19:32 UTC)

Prognozė

Ataskaita buvo paskelbta 8 valandos ir 2 minutes, ne 11:30 UTC
Prognozė galioja nuo 17 metu 12 UTC su 17 metu 16 UTC
Vėjas 12 kt iš Pietų
Matomumas 10 km arba daugiau
nėra debesų žemiau 1500 m ir nėra kamuolinių lietaus debesų

TAF: ESNK 171130Z 1712/1716 17012KT CAVOK

Orai ataskaitas ir orų prognozės (METAR, TAF).

turimą stotys yra geltonos ir raudonos taškus žemėlapyje.

Perkelti pele per norėdami pamatyti stoties vardą.

Tada spustelėkite, norėdami matyti oro stebėjimo ir prognozės.

Norėdami pakeisti žemėlapį: spustelėkite ant žalios mygtukų su juodo kryžiaus žemyn,; žalią mygtuką su brūkšneliu, jei norite nutolinti; arba žalių rodyklių gretimoms žemėlapius.


METAR-TAF: